Time;durP1;ratioP1;P1;durP2;ratioP2;P2;SDS_P1;SDS_P2;PMS_P1;PMS_P2;Temp;Humidity;BMP_temperature;BMP_pressure;BME280_temperature;BME280_humidity;BME280_pressure;Samples;Min_cycle;Max_cycle;Signal;HPM_P1;HPM_P2
2022/01/16 00:04:11;;;;;;;27.13;12.83;;;-0.10;97.30;;;;;;5036397;28;20497;-88
2022/01/16 00:06:39;;;;;;;31.13;13.90;;;-0.20;97.30;;;;;;5009475;28;20295;-87
2022/01/16 00:09:05;;;;;;;30.63;11.43;;;-0.20;97.30;;;;;;5015700;28;20481;-88
2022/01/16 00:11:31;;;;;;;29.17;12.30;;;-0.20;97.30;;;;;;5019614;28;20924;-87
2022/01/16 00:13:57;;;;;;;34.13;13.23;;;-0.20;97.30;;;;;;5016137;28;20483;-87
2022/01/16 00:16:23;;;;;;;34.30;11.83;;;-0.20;97.30;;;;;;5011906;28;20880;-88
2022/01/16 00:18:49;;;;;;;30.97;12.87;;;-0.30;97.30;;;;;;5014069;28;20204;-87
2022/01/16 00:21:37;;;;;;;24.20;12.07;;;-0.30;97.30;;;;;;5017048;28;20439;-88
2022/01/16 00:24:04;;;;;;;25.00;12.60;;;-0.30;97.30;;;;;;5033688;28;21164;-87
2022/01/16 00:26:29;;;;;;;39.97;12.93;;;-0.30;97.30;;;;;;5013588;28;20455;-87
2022/01/16 00:28:55;;;;;;;26.23;11.20;;;-0.20;97.30;;;;;;5012609;28;20462;-88
2022/01/16 00:31:23;;;;;;;33.13;11.97;;;-0.20;97.30;;;;;;5013625;28;20548;-87
2022/01/16 00:33:49;;;;;;;30.40;11.30;;;-0.20;97.30;;;;;;5011776;28;20278;-87
2022/01/16 00:36:17;;;;;;;42.67;11.80;;;-0.20;97.30;;;;;;5013269;28;20565;-87
2022/01/16 00:38:44;;;;;;;39.77;13.27;;;-0.20;97.30;;;;;;5010165;28;20439;-88
2022/01/16 00:41:10;;;;;;;28.90;12.77;;;-0.20;97.30;;;;;;5013329;28;20438;-88
2022/01/16 00:43:36;;;;;;;28.57;12.50;;;-0.30;97.30;;;;;;5012527;28;20462;-87
2022/01/16 00:46:01;;;;;;;35.33;13.37;;;-0.30;97.30;;;;;;5029889;28;20466;-87
2022/01/16 00:48:27;;;;;;;21.23;11.67;;;-0.40;97.30;;;;;;5006306;28;20666;-87
2022/01/16 00:50:53;;;;;;;33.73;12.20;;;-0.40;97.30;;;;;;5028022;28;20188;-88
2022/01/16 00:53:18;;;;;;;25.50;12.30;;;-0.50;97.30;;;;;;5012643;28;20197;-87
2022/01/16 00:55:45;;;;;;;30.57;11.97;;;-0.50;97.30;;;;;;5012708;28;20234;-88
2022/01/16 00:58:10;;;;;;;27.43;12.00;;;-0.50;97.30;;;;;;5009582;28;20217;-88
2022/01/16 01:00:37;;;;;;;28.13;11.97;;;-0.60;97.30;;;;;;5013004;28;20529;-88
2022/01/16 01:03:03;;;;;;;19.40;10.17;;;-0.60;97.30;;;;;;5011925;28;20298;-87
2022/01/16 01:05:29;;;;;;;30.60;12.47;;;-0.80;97.30;;;;;;5012250;28;20434;-87
2022/01/16 01:07:55;;;;;;;32.17;12.73;;;-0.80;97.30;;;;;;5011732;28;20562;-87
2022/01/16 01:10:28;;;;;;;31.73;12.50;;;-0.80;97.30;;;;;;5012746;28;20529;-88
2022/01/16 01:13:07;;;;;;;32.67;13.73;;;-0.80;97.30;;;;;;5012441;28;20434;-87
2022/01/16 01:15:43;;;;;;;26.20;12.60;;;-0.80;97.30;;;;;;5006614;28;20433;-88
2022/01/16 01:18:09;;;;;;;31.00;12.90;;;-0.80;97.30;;;;;;5004725;28;20446;-87
2022/01/16 01:20:36;;;;;;;32.97;14.90;;;-0.80;97.30;;;;;;5012623;28;20933;-87
2022/01/16 01:23:02;;;;;;;38.30;11.77;;;-0.70;97.30;;;;;;5010704;28;20821;-88
2022/01/16 01:25:27;;;;;;;34.20;13.77;;;-0.70;97.30;;;;;;5028333;28;20454;-87
2022/01/16 01:27:53;;;;;;;41.43;13.97;;;-0.70;97.30;;;;;;5011565;28;20215;-87
2022/01/16 01:30:20;;;;;;;34.47;14.03;;;-0.70;97.30;;;;;;5012217;28;20180;-87
2022/01/16 01:32:47;;;;;;;30.07;11.80;;;-0.80;97.30;;;;;;5010907;28;20200;-87
2022/01/16 01:35:16;;;;;;;30.03;11.90;;;-0.80;97.30;;;;;;5011700;28;20968;-87
2022/01/16 01:37:42;;;;;;;32.73;14.87;;;-0.80;97.30;;;;;;5012372;28;20889;-87
2022/01/16 01:40:11;;;;;;;42.07;14.40;;;-0.80;97.30;;;;;;5010187;28;20470;-87
2022/01/16 01:51:17;;;;;;;29.43;12.50;;;-0.70;97.30;;;;;;5028925;28;21006;-88
2022/01/16 01:53:43;;;;;;;35.90;12.57;;;-0.70;97.30;;;;;;5011625;28;20458;-88
2022/01/16 01:56:12;;;;;;;35.90;13.47;;;-0.80;97.30;;;;;;5011519;28;20435;-87
2022/01/16 01:58:38;;;;;;;37.23;12.67;;;-0.80;97.30;;;;;;5023053;28;20525;-87
2022/01/16 02:01:04;;;;;;;33.77;12.67;;;-0.80;97.30;;;;;;5013857;28;20862;-88
2022/01/16 02:06:06;;;;;;;39.43;13.50;;;-0.80;97.30;;;;;;5028175;28;20470;-87
2022/01/16 02:08:34;;;;;;;35.47;12.77;;;-0.80;97.30;;;;;;5012457;28;20481;-87
2022/01/16 02:11:02;;;;;;;29.90;11.57;;;-0.80;97.30;;;;;;5011806;28;20442;-87
2022/01/16 02:13:32;;;;;;;31.93;11.30;;;-0.80;97.30;;;;;;5010128;28;21045;-88
2022/01/16 02:34:42;;;;;;;30.00;11.10;;;-0.90;97.30;;;;;;5028444;28;20439;-87
2022/01/16 02:37:12;;;;;;;28.50;11.23;;;-0.90;97.30;;;;;;5013120;28;20251;-87
2022/01/16 02:39:48;;;;;;;27.57;13.10;;;-0.80;97.30;;;;;;5016790;28;20467;-87
2022/01/16 02:42:14;;;;;;;24.47;11.10;;;-0.80;97.30;;;;;;5020931;28;20458;-87
2022/01/16 02:44:46;;;;;;;32.70;11.80;;;-0.80;97.30;;;;;;5011273;28;20492;-87
2022/01/16 02:47:17;;;;;;;34.17;12.77;;;-0.80;97.30;;;;;;5011348;28;20474;-87
2022/01/16 02:49:44;;;;;;;27.10;10.50;;;-0.80;97.30;;;;;;5010586;28;20487;-87
2022/01/16 02:52:18;;;;;;;29.90;11.23;;;-0.80;97.30;;;;;;5011390;28;20493;-87
2022/01/16 02:54:45;;;;;;;27.30;12.00;;;-0.70;97.30;;;;;;5010181;28;20791;-87
2022/01/16 02:57:15;;;;;;;26.17;10.23;;;-0.70;97.30;;;;;;5011374;28;20506;-87
2022/01/16 02:59:48;;;;;;;28.87;10.10;;;-0.70;97.30;;;;;;5009487;28;20438;-88
2022/01/16 03:02:14;;;;;;;27.43;10.37;;;-0.70;97.30;;;;;;5012952;28;20760;-87
2022/01/16 03:04:40;;;;;;;25.07;10.60;;;-0.70;97.30;;;;;;5021699;28;20430;-87
2022/01/16 03:07:06;;;;;;;30.47;11.80;;;-0.70;97.30;;;;;;5007405;28;20471;-87
2022/01/16 03:09:57;;;;;;;29.70;10.27;;;-0.70;97.30;;;;;;5014286;28;20308;-87
2022/01/16 03:12:20;;;;;;;26.17;10.57;;;-0.80;97.30;;;;;;5032316;28;20197;-87
2022/01/16 03:14:46;;;;;;;27.47;10.47;;;-0.80;97.30;;;;;;5014139;28;20427;-88
2022/01/16 03:17:12;;;;;;;32.40;11.47;;;-0.80;97.30;;;;;;5007247;28;20623;-87
2022/01/16 03:22:22;;;;;;;24.27;10.60;;;-0.70;97.30;;;;;;5033129;28;20450;-87
2022/01/16 03:24:48;;;;;;;22.97;9.60;;;-0.70;97.30;;;;;;5032046;28;20439;-87
2022/01/16 03:27:17;;;;;;;26.43;9.67;;;-0.70;97.30;;;;;;5013662;28;20235;-88
2022/01/16 03:29:48;;;;;;;28.97;11.67;;;-0.60;97.30;;;;;;4997459;28;20190;-87
2022/01/16 03:32:17;;;;;;;32.33;11.00;;;-0.60;97.30;;;;;;5014093;28;20538;-88
2022/01/16 03:34:42;;;;;;;25.07;9.00;;;-0.70;97.30;;;;;;5032354;28;20446;-88
2022/01/16 03:37:08;;;;;;;20.83;9.33;;;-0.70;97.30;;;;;;5012883;28;20471;-87
2022/01/16 03:39:35;;;;;;;22.73;10.17;;;-0.70;97.30;;;;;;5008083;28;20184;-87
2022/01/16 03:42:01;;;;;;;21.67;8.93;;;-0.70;97.30;;;;;;5014185;28;20447;-87
2022/01/16 03:44:28;;;;;;;21.70;10.10;;;-0.70;97.30;;;;;;5013498;28;20525;-88
2022/01/16 03:46:53;;;;;;;24.97;11.37;;;-0.70;97.30;;;;;;5014278;28;21011;-88
2022/01/16 03:49:21;;;;;;;22.40;9.37;;;-0.70;97.30;;;;;;5013142;28;20443;-88
2022/01/16 03:51:50;;;;;;;29.10;11.00;;;-0.70;97.30;;;;;;5014113;28;20197;-88
2022/01/16 03:54:18;;;;;;;22.37;9.67;;;-0.70;97.30;;;;;;5016811;28;20862;-88
2022/01/16 03:56:43;;;;;;;25.73;9.87;;;-0.70;97.30;;;;;;5013249;28;20431;-87
2022/01/16 03:59:10;;;;;;;30.30;11.00;;;-0.70;97.30;;;;;;5030408;28;20454;-87
2022/01/16 04:01:36;;;;;;;21.90;10.60;;;-0.70;97.30;;;;;;5030760;28;20177;-87
2022/01/16 04:04:03;;;;;;;22.43;9.80;;;-0.70;97.30;;;;;;5013843;28;20471;-87
2022/01/16 04:06:28;;;;;;;24.70;10.30;;;-0.70;97.30;;;;;;5032641;28;20455;-87
2022/01/16 04:08:55;;;;;;;23.87;10.00;;;-0.70;97.30;;;;;;5012939;28;20500;-87
2022/01/16 04:11:22;;;;;;;24.00;8.87;;;-0.70;97.30;;;;;;5013802;28;20725;-86
2022/01/16 04:13:51;;;;;;;24.50;10.20;;;-0.60;97.30;;;;;;5012698;28;20454;-87
2022/01/16 04:16:18;;;;;;;22.30;10.27;;;-0.70;97.30;;;;;;5013465;28;20427;-87
2022/01/16 04:18:44;;;;;;;19.10;9.33;;;-0.70;97.30;;;;;;5012430;28;20427;-86
2022/01/16 04:21:10;;;;;;;29.37;10.90;;;-0.70;97.30;;;;;;5031520;28;20407;-87
2022/01/16 04:23:35;;;;;;;27.30;10.40;;;-0.70;97.30;;;;;;5012878;28;20204;-88
2022/01/16 04:26:01;;;;;;;26.07;9.37;;;-0.70;97.30;;;;;;5011639;28;20299;-88
2022/01/16 04:28:26;;;;;;;19.73;9.10;;;-0.70;97.30;;;;;;5011941;28;20314;-88
2022/01/16 04:30:52;;;;;;;28.10;11.07;;;-0.70;97.30;;;;;;5013969;28;20480;-87
2022/01/16 04:33:18;;;;;;;22.63;10.03;;;-0.70;97.30;;;;;;5013187;28;20289;-89
2022/01/16 04:35:44;;;;;;;28.23;10.83;;;-0.70;97.30;;;;;;5013714;28;20956;-88
2022/01/16 04:38:09;;;;;;;26.40;9.37;;;-0.70;97.30;;;;;;5011055;28;20443;-87
2022/01/16 04:40:43;;;;;;;24.07;10.07;;;-0.70;97.30;;;;;;5014147;28;20251;-87
2022/01/16 04:45:58;;;;;;;21.83;9.27;;;-0.70;97.30;;;;;;5033439;28;20542;-87
2022/01/16 04:48:24;;;;;;;28.23;10.87;;;-0.70;97.30;;;;;;5010931;28;20473;-88
2022/01/16 04:50:49;;;;;;;24.57;10.30;;;-0.70;97.30;;;;;;5013260;28;20419;-87
2022/01/16 04:53:15;;;;;;;24.30;8.77;;;-0.70;97.30;;;;;;5012291;28;20235;-88
2022/01/16 04:55:40;;;;;;;25.20;10.40;;;-0.70;97.30;;;;;;5013154;28;20185;-87
2022/01/16 04:58:06;;;;;;;30.70;9.70;;;-0.70;97.30;;;;;;5030261;28;20634;-87
2022/01/16 05:00:31;;;;;;;28.30;10.50;;;-0.70;97.30;;;;;;5012909;28;20611;-87
2022/01/16 05:02:57;;;;;;;25.63;10.03;;;-0.70;97.30;;;;;;5011867;28;20660;-88
2022/01/16 05:05:22;;;;;;;29.17;10.60;;;-0.70;97.30;;;;;;5011993;28;20199;-88
2022/01/16 05:07:48;;;;;;;28.93;9.27;;;-0.70;97.30;;;;;;5012817;28;20212;-87
2022/01/16 05:10:13;;;;;;;24.07;8.73;;;-0.70;97.30;;;;;;5011694;28;20211;-88
2022/01/16 05:12:42;;;;;;;30.57;11.63;;;-0.70;97.30;;;;;;5012730;28;20208;-88
2022/01/16 05:17:52;;;;;;;25.63;9.70;;;-0.60;97.30;;;;;;5029971;28;20505;-88
2022/01/16 05:20:18;;;;;;;28.37;10.33;;;-0.60;97.30;;;;;;5014321;28;20496;-88
2022/01/16 05:22:44;;;;;;;21.80;9.27;;;-0.60;97.30;;;;;;5011953;28;20220;-88
2022/01/16 05:25:12;;;;;;;27.53;9.37;;;-0.60;97.30;;;;;;5028354;28;20706;-88
2022/01/16 05:27:38;;;;;;;32.57;10.70;;;-0.60;97.30;;;;;;5012519;28;20666;-87
2022/01/16 05:30:04;;;;;;;34.60;11.03;;;-0.60;97.30;;;;;;5008772;28;20526;-87
2022/01/16 05:32:30;;;;;;;27.27;10.40;;;-0.60;97.30;;;;;;5011515;28;20219;-87
2022/01/16 05:34:55;;;;;;;24.53;9.60;;;-0.60;97.30;;;;;;5011594;28;20431;-87
2022/01/16 05:37:21;;;;;;;30.50;10.23;;;-0.60;97.30;;;;;;5011107;28;20177;-87
2022/01/16 05:39:48;;;;;;;28.53;10.40;;;-0.60;97.30;;;;;;5011156;28;20172;-87
2022/01/16 05:42:14;;;;;;;24.57;10.50;;;-0.60;97.30;;;;;;5010973;28;20196;-88
2022/01/16 05:44:40;;;;;;;29.70;10.93;;;-0.60;97.30;;;;;;5011795;28;20785;-87
2022/01/16 05:47:06;;;;;;;28.63;9.90;;;-0.60;97.30;;;;;;5011855;28;20295;-88
2022/01/16 05:49:32;;;;;;;29.93;10.30;;;-0.60;97.30;;;;;;5010911;28;20180;-87
2022/01/16 05:51:58;;;;;;;33.13;11.67;;;-0.70;97.30;;;;;;5032354;28;20415;-88
2022/01/16 05:54:23;;;;;;;22.07;10.53;;;-0.70;97.30;;;;;;5013437;28;21023;-88
2022/01/16 05:56:49;;;;;;;24.87;9.20;;;-0.70;97.30;;;;;;5012112;28;20196;-88
2022/01/16 05:59:14;;;;;;;18.37;9.33;;;-0.70;97.30;;;;;;5010522;28;20172;-88
2022/01/16 06:01:40;;;;;;;22.70;10.63;;;-0.70;97.30;;;;;;5011337;28;20685;-87
2022/01/16 06:04:05;;;;;;;20.43;9.60;;;-0.70;97.30;;;;;;5010911;28;20215;-87
2022/01/16 06:06:31;;;;;;;29.83;10.23;;;-0.70;97.30;;;;;;5011075;28;20204;-87
2022/01/16 06:08:56;;;;;;;31.37;11.20;;;-0.70;97.30;;;;;;5009028;28;20259;-87
2022/01/16 06:11:22;;;;;;;26.13;10.03;;;-0.70;97.30;;;;;;5011199;28;20182;-88
2022/01/16 06:13:47;;;;;;;30.30;10.63;;;-0.70;97.30;;;;;;5010788;28;20200;-88
2022/01/16 06:16:13;;;;;;;24.87;9.50;;;-0.70;97.30;;;;;;5011429;28;20184;-88
2022/01/16 06:18:38;;;;;;;31.27;11.90;;;-0.70;97.30;;;;;;5010246;28;20451;-88
2022/01/16 06:21:04;;;;;;;29.33;11.57;;;-0.60;97.30;;;;;;5010434;28;20180;-88
2022/01/16 06:23:29;;;;;;;30.37;11.07;;;-0.60;97.30;;;;;;5007762;28;20204;-88
2022/01/16 06:25:55;;;;;;;27.30;10.83;;;-0.60;97.30;;;;;;5024777;28;20195;-88
2022/01/16 06:28:23;;;;;;;34.50;11.50;;;-0.50;97.30;;;;;;5033590;28;20204;-88
2022/01/16 06:30:48;;;;;;;35.00;13.07;;;-0.50;97.30;;;;;;5012055;28;20179;-87
2022/01/16 06:33:14;;;;;;;28.17;9.93;;;-0.50;97.30;;;;;;5011429;28;20439;-87
2022/01/16 06:35:39;;;;;;;32.33;11.47;;;-0.40;97.30;;;;;;5013277;28;20180;-88
2022/01/16 06:38:05;;;;;;;34.03;12.13;;;-0.40;97.30;;;;;;5040733;28;20279;-88
2022/01/16 06:40:31;;;;;;;23.77;10.10;;;-0.40;97.30;;;;;;5015568;28;20654;-88
2022/01/16 06:42:56;;;;;;;31.23;11.77;;;-0.30;97.30;;;;;;5015481;28;20267;-88
2022/01/16 06:45:22;;;;;;;24.93;9.40;;;-0.30;97.30;;;;;;5015277;28;20188;-87
2022/01/16 06:47:47;;;;;;;30.37;10.00;;;-0.20;97.30;;;;;;5015308;28;20215;-86
2022/01/16 06:50:13;;;;;;;27.40;10.37;;;-0.20;97.30;;;;;;5015042;28;20200;-87
2022/01/16 06:52:39;;;;;;;31.33;10.70;;;-0.10;97.30;;;;;;5023268;28;20231;-86
2022/01/16 06:55:06;;;;;;;30.00;9.80;;;0.00;97.30;;;;;;5035133;28;20638;-86
2022/01/16 06:57:31;;;;;;;27.10;9.07;;;0.00;97.30;;;;;;5016520;28;20188;-86
2022/01/16 06:59:57;;;;;;;30.40;11.50;;;0.10;97.30;;;;;;5014349;28;20450;-86
2022/01/16 07:02:23;;;;;;;24.43;10.37;;;0.10;97.30;;;;;;5032823;28;20298;-85
2022/01/16 07:04:48;;;;;;;35.57;13.07;;;0.10;97.30;;;;;;5014660;28;20603;-86
2022/01/16 07:07:14;;;;;;;36.33;11.03;;;0.10;97.30;;;;;;5014335;28;20250;-86
2022/01/16 07:09:39;;;;;;;32.30;11.67;;;0.10;97.30;;;;;;5013532;28;20176;-86
2022/01/16 07:12:06;;;;;;;35.27;11.80;;;0.10;97.30;;;;;;5032110;28;20219;-85
2022/01/16 07:14:31;;;;;;;37.30;11.80;;;0.20;97.30;;;;;;5013336;28;20274;-87
2022/01/16 07:16:57;;;;;;;30.63;12.33;;;0.20;97.30;;;;;;5031713;28;20646;-87
2022/01/16 07:19:23;;;;;;;35.60;11.80;;;0.20;97.30;;;;;;5012283;28;20548;-88
2022/01/16 07:21:49;;;;;;;28.90;12.37;;;0.20;97.30;;;;;;5013391;28;20426;-87
2022/01/16 07:24:16;;;;;;;31.47;11.00;;;0.20;97.30;;;;;;5013826;28;20438;-87
2022/01/16 07:26:45;;;;;;;30.70;12.30;;;0.30;97.30;;;;;;5012953;28;20578;-87
2022/01/16 07:29:11;;;;;;;34.20;12.20;;;0.20;97.30;;;;;;5013462;28;20611;-87
2022/01/16 07:31:40;;;;;;;24.53;9.70;;;0.20;97.30;;;;;;5012479;28;20611;-87
2022/01/16 07:34:06;;;;;;;33.17;14.77;;;0.20;97.30;;;;;;5010891;28;20440;-87
2022/01/16 07:36:32;;;;;;;25.40;10.07;;;0.20;97.30;;;;;;5012228;28;20442;-87
2022/01/16 07:38:58;;;;;;;23.83;10.67;;;0.20;97.30;;;;;;5012313;28;20434;-87
2022/01/16 07:41:24;;;;;;;24.70;9.67;;;0.20;97.30;;;;;;5019050;28;20425;-87
2022/01/16 07:43:49;;;;;;;29.93;13.77;;;0.20;97.30;;;;;;5015200;28;20212;-87
2022/01/16 07:46:17;;;;;;;24.77;10.97;;;0.20;97.30;;;;;;5012156;28;20724;-87
2022/01/16 07:48:43;;;;;;;25.57;10.43;;;0.20;97.30;;;;;;5030650;28;20666;-87
2022/01/16 07:51:08;;;;;;;22.53;10.40;;;0.30;97.30;;;;;;5008744;28;20477;-87
2022/01/16 07:53:34;;;;;;;24.80;10.00;;;0.30;97.30;;;;;;5016743;28;20203;-87
2022/01/16 07:55:59;;;;;;;24.10;9.33;;;0.30;97.30;;;;;;5015954;28;20466;-87
2022/01/16 07:58:25;;;;;;;25.90;10.63;;;0.30;97.30;;;;;;5022983;28;20544;-88
2022/01/16 08:00:50;;;;;;;25.53;10.10;;;0.30;97.30;;;;;;5017521;28;20676;-87
2022/01/16 08:03:16;;;;;;;25.33;9.80;;;0.30;97.30;;;;;;5014160;28;20314;-88
2022/01/16 08:05:41;;;;;;;23.23;9.43;;;0.30;97.30;;;;;;5014456;28;20427;-87
2022/01/16 08:08:07;;;;;;;22.40;7.80;;;0.40;97.30;;;;;;5014127;28;20208;-87
2022/01/16 08:10:33;;;;;;;22.87;9.00;;;0.40;97.30;;;;;;5040390;28;20712;-88
2022/01/16 08:12:59;;;;;;;20.80;9.37;;;0.50;97.30;;;;;;5023120;28;20192;-87
2022/01/16 08:15:25;;;;;;;24.70;9.60;;;0.50;97.30;;;;;;5013684;28;20226;-87
2022/01/16 08:17:51;;;;;;;21.33;8.17;;;0.50;97.30;;;;;;5017412;28;20505;-87
2022/01/16 08:20:17;;;;;;;19.63;8.60;;;0.60;97.30;;;;;;5015239;28;20474;-87
2022/01/16 08:22:44;;;;;;;18.83;9.00;;;0.60;97.30;;;;;;5031585;28;20436;-87
2022/01/16 08:25:10;;;;;;;21.80;8.20;;;0.70;97.30;;;;;;5031686;28;20196;-88
2022/01/16 08:27:36;;;;;;;27.63;9.77;;;0.70;97.30;;;;;;5030928;28;20552;-87
2022/01/16 08:30:03;;;;;;;20.40;8.97;;;0.70;97.30;;;;;;5013685;28;20438;-87
2022/01/16 08:32:28;;;;;;;27.20;10.40;;;0.80;97.30;;;;;;5013595;28;20197;-87
2022/01/16 08:34:54;;;;;;;24.10;10.20;;;0.80;97.30;;;;;;5013689;28;20422;-88
2022/01/16 08:37:19;;;;;;;24.67;9.37;;;0.90;97.30;;;;;;5012991;28;20187;-88
2022/01/16 08:39:45;;;;;;;24.47;10.07;;;0.90;97.30;;;;;;5012995;28;20177;-87
2022/01/16 08:42:10;;;;;;;28.40;8.87;;;0.90;97.30;;;;;;5012154;28;20258;-87
2022/01/16 08:44:38;;;;;;;23.30;8.80;;;1.00;97.30;;;;;;5007885;28;20730;-87
2022/01/16 08:47:05;;;;;;;27.63;8.47;;;1.00;97.30;;;;;;5013343;28;20296;-87
2022/01/16 08:49:35;;;;;;;25.87;9.30;;;1.00;97.30;;;;;;5014310;28;20412;-88
2022/01/16 08:52:01;;;;;;;21.93;9.10;;;1.10;97.30;;;;;;5014485;28;20423;-89
2022/01/16 08:54:26;;;;;;;21.07;8.60;;;1.10;97.30;;;;;;5016415;28;20429;-89
2022/01/16 08:56:52;;;;;;;29.57;9.90;;;1.10;97.30;;;;;;5015748;28;20799;-88
2022/01/16 08:59:17;;;;;;;22.10;9.10;;;1.10;97.30;;;;;;5019406;28;20180;-85
2022/01/16 09:01:42;;;;;;;26.20;10.37;;;1.20;97.30;;;;;;5037446;23;20235;-86
2022/01/16 09:04:08;;;;;;;23.40;9.23;;;1.20;97.30;;;;;;5035670;28;20179;-85
2022/01/16 09:06:33;;;;;;;24.13;9.30;;;1.20;97.30;;;;;;5035584;28;20204;-84
2022/01/16 09:08:59;;;;;;;23.20;9.50;;;1.30;97.30;;;;;;5056587;28;20180;-86
2022/01/16 09:11:25;;;;;;;27.87;11.70;;;1.30;97.30;;;;;;5056108;28;20202;-85
2022/01/16 09:13:52;;;;;;;26.70;10.63;;;1.30;97.30;;;;;;5056311;28;20186;-86
2022/01/16 09:16:19;;;;;;;22.57;9.40;;;1.40;97.30;;;;;;5056370;28;20422;-85
2022/01/16 09:18:45;;;;;;;25.53;9.37;;;1.40;97.30;;;;;;5037591;28;20471;-85
2022/01/16 09:21:10;;;;;;;22.73;8.90;;;1.40;97.30;;;;;;5036623;28;20418;-85
2022/01/16 09:23:37;;;;;;;26.53;9.63;;;1.40;97.30;;;;;;5053749;28;20501;-86
2022/01/16 09:26:02;;;;;;;28.07;9.70;;;1.50;97.30;;;;;;5036115;28;20187;-87
2022/01/16 09:28:28;;;;;;;21.97;10.13;;;1.50;97.30;;;;;;5034800;28;20496;-86
2022/01/16 09:30:53;;;;;;;22.53;8.87;;;1.50;97.30;;;;;;5033718;28;20233;-86
2022/01/16 09:33:19;;;;;;;23.30;10.30;;;1.60;97.30;;;;;;5036387;28;20541;-86
2022/01/16 09:35:44;;;;;;;26.47;10.13;;;1.60;97.30;;;;;;5037533;28;20191;-86
2022/01/16 09:38:10;;;;;;;21.00;8.93;;;1.60;97.30;;;;;;5031983;28;20233;-86
2022/01/16 09:40:36;;;;;;;29.43;9.60;;;1.70;97.30;;;;;;5036077;28;20213;-87
2022/01/16 09:43:03;;;;;;;22.50;9.47;;;1.70;97.30;;;;;;5049259;28;20214;-86
2022/01/16 09:45:29;;;;;;;22.70;9.00;;;1.70;97.30;;;;;;5032918;28;20176;-89
2022/01/16 09:47:55;;;;;;;20.33;7.63;;;1.70;97.30;;;;;;5032735;28;20530;-85
2022/01/16 09:50:24;;;;;;;20.80;7.13;;;1.80;97.30;;;;;;5032059;28;20941;-87
2022/01/16 09:52:50;;;;;;;21.47;8.40;;;1.80;97.30;;;;;;5054994;28;20665;-86
2022/01/16 09:55:16;;;;;;;23.93;8.70;;;1.80;97.30;;;;;;5049241;28;20931;-87
2022/01/16 09:57:42;;;;;;;21.10;8.33;;;1.90;97.30;;;;;;5054739;28;20433;-87
2022/01/16 10:00:11;;;;;;;20.40;8.37;;;1.90;97.30;;;;;;5033903;28;20464;-88
2022/01/16 10:02:37;;;;;;;17.17;6.70;;;1.90;97.30;;;;;;5042629;28;20227;-87
2022/01/16 10:05:28;;;;;;;20.87;8.20;;;1.90;97.30;;;;;;5032350;28;20962;-88
2022/01/16 10:07:55;;;;;;;19.67;9.20;;;1.90;97.30;;;;;;5031943;28;20243;-86
2022/01/16 10:10:25;;;;;;;19.93;6.70;;;1.90;97.30;;;;;;5031423;28;20413;-86
2022/01/16 10:12:54;;;;;;;15.40;7.17;;;1.90;97.30;;;;;;5029650;28;20441;-87
2022/01/16 10:15:26;;;;;;;21.33;8.20;;;1.90;97.30;;;;;;5049935;28;20505;-86
2022/01/16 10:17:54;;;;;;;18.43;7.83;;;2.00;97.30;;;;;;5057649;28;20524;-86
2022/01/16 10:20:20;;;;;;;21.80;7.87;;;2.00;97.30;;;;;;5030707;28;20423;-86
2022/01/16 10:22:49;;;;;;;18.47;7.13;;;2.00;97.30;;;;;;5033382;28;20455;-86
2022/01/16 10:25:17;;;;;;;23.83;8.63;;;2.00;97.30;;;;;;5032415;28;20432;-86
2022/01/16 10:27:45;;;;;;;25.20;9.13;;;2.00;97.30;;;;;;5032083;28;20647;-86
2022/01/16 10:30:14;;;;;;;25.13;8.27;;;2.10;97.30;;;;;;5032021;28;20833;-86
2022/01/16 10:32:44;;;;;;;22.40;8.43;;;2.10;97.30;;;;;;5035089;28;20515;-87
2022/01/16 10:35:35;;;;;;;33.50;9.43;;;2.10;97.30;;;;;;5038030;28;20431;-87
2022/01/16 10:38:01;;;;;;;26.90;10.67;;;2.10;97.30;;;;;;5024236;28;20462;-87
2022/01/16 10:40:38;;;;;;;23.67;9.00;;;2.10;97.30;;;;;;5033723;28;20472;-86
2022/01/16 10:43:13;;;;;;;24.53;10.90;;;2.20;97.30;;;;;;5033382;28;20624;-87
2022/01/16 10:45:40;;;;;;;30.67;8.80;;;2.20;97.30;;;;;;5022654;28;20472;-87
2022/01/16 10:48:06;;;;;;;33.07;10.30;;;2.20;97.30;;;;;;5046301;28;20466;-87
2022/01/16 10:50:59;;;;;;;23.20;9.67;;;2.20;97.30;;;;;;5033124;28;20441;-87
2022/01/16 10:53:26;;;;;;;26.73;10.33;;;2.20;97.30;;;;;;5033743;28;20427;-88
2022/01/16 10:55:56;;;;;;;27.53;9.60;;;2.20;97.30;;;;;;5030428;28;20453;-87
2022/01/16 10:58:27;;;;;;;32.50;10.97;;;2.20;97.30;;;;;;5030050;28;20476;-86
2022/01/16 11:01:05;;;;;;;28.63;11.30;;;2.20;97.30;;;;;;5035367;28;20437;-87
2022/01/16 11:03:40;;;;;;;35.07;11.00;;;2.20;97.30;;;;;;5047277;28;20462;-87
2022/01/16 11:06:06;;;;;;;32.60;11.33;;;2.20;97.30;;;;;;5026935;28;20468;-87
2022/01/16 11:08:32;;;;;;;30.60;11.63;;;2.30;97.30;;;;;;5033661;28;20959;-86
2022/01/16 11:10:59;;;;;;;37.57;14.07;;;2.20;97.30;;;;;;5051210;28;20177;-86
2022/01/16 11:13:34;;;;;;;33.97;12.70;;;2.30;97.30;;;;;;5033490;28;20487;-86
2022/01/16 11:16:03;;;;;;;31.77;11.37;;;2.30;97.30;;;;;;5034017;28;20449;-87
2022/01/16 11:18:29;;;;;;;31.97;12.53;;;2.40;97.30;;;;;;5033839;28;20415;-86
2022/01/16 11:21:13;;;;;;;35.93;13.17;;;2.30;97.30;;;;;;5033838;28;20398;-87
2022/01/16 11:26:23;;;;;;;35.23;13.00;;;2.40;97.30;;;;;;5046847;28;20454;-86
2022/01/16 11:28:52;;;;;;;38.97;12.50;;;2.40;97.30;;;;;;5019183;28;20430;-85
2022/01/16 11:31:18;;;;;;;35.63;12.50;;;2.40;97.30;;;;;;5036036;28;20431;-87
2022/01/16 11:33:44;;;;;;;31.53;11.80;;;2.50;97.30;;;;;;5017908;28;20509;-86
2022/01/16 11:36:16;;;;;;;33.73;12.70;;;2.50;97.30;;;;;;5020708;28;21009;-86
2022/01/16 11:38:44;;;;;;;30.10;11.07;;;2.50;97.30;;;;;;5041465;28;20424;-87
2022/01/16 11:41:14;;;;;;;39.50;12.17;;;2.50;97.30;;;;;;5017067;28;20414;-87
2022/01/16 11:43:44;;;;;;;33.10;12.23;;;2.60;97.30;;;;;;5039552;28;20413;-86
2022/01/16 11:46:18;;;;;;;32.60;11.50;;;2.60;97.30;;;;;;5057248;28;20417;-87
2022/01/16 11:49:02;;;;;;;34.20;14.20;;;2.60;97.30;;;;;;5041817;28;20422;-87
2022/01/16 11:51:36;;;;;;;35.67;11.70;;;2.60;97.30;;;;;;5054874;28;20484;-86
2022/01/16 11:54:02;;;;;;;30.70;11.53;;;2.60;97.30;;;;;;5034714;28;20424;-86
2022/01/16 11:56:42;;;;;;;19.03;7.17;;;2.60;97.30;;;;;;5034632;28;20426;-86
2022/01/16 11:59:35;;;;;;;33.03;11.63;;;2.60;97.30;;;;;;5051885;28;20260;-87
2022/01/16 12:02:03;;;;;;;34.03;11.97;;;2.60;97.30;;;;;;5033093;28;20924;-87
2022/01/16 12:04:31;;;;;;;34.53;11.30;;;2.60;97.30;;;;;;5034599;28;20414;-86
2022/01/16 12:07:12;;;;;;;29.73;11.93;;;2.60;97.30;;;;;;5034228;28;20462;-87
2022/01/16 12:12:11;;;;;;;28.73;10.00;;;2.70;97.30;;;;;;5052069;28;20422;-87
2022/01/16 12:14:49;;;;;;;25.63;8.53;;;2.70;97.30;;;;;;5034368;28;21005;-87
2022/01/16 12:17:32;;;;;;;21.67;11.30;;;2.70;97.30;;;;;;5034505;28;20418;-87
2022/01/16 12:20:09;;;;;;;22.37;9.13;;;2.70;97.30;;;;;;5034378;28;20745;-87
2022/01/16 12:22:48;;;;;;;32.80;12.97;;;2.70;97.30;;;;;;5034187;28;21025;-88
2022/01/16 12:25:33;;;;;;;20.97;9.37;;;2.70;97.30;;;;;;5034505;28;20952;-86
2022/01/16 12:28:18;;;;;;;24.33;11.00;;;2.70;97.30;;;;;;5033930;28;20473;-87
2022/01/16 12:31:02;;;;;;;26.20;9.57;;;2.70;97.30;;;;;;5034329;28;20792;-87
2022/01/16 12:33:28;;;;;;;20.20;7.93;;;2.70;97.30;;;;;;5051977;28;20917;-87
2022/01/16 12:35:58;;;;;;;25.57;8.23;;;2.70;97.30;;;;;;5015518;28;20416;-87
2022/01/16 12:38:28;;;;;;;23.83;9.60;;;2.70;97.30;;;;;;5014452;28;20189;-87
2022/01/16 12:41:25;;;;;;;20.90;8.40;;;2.70;97.30;;;;;;5013907;28;20448;-87
2022/01/16 12:43:55;;;;;;;18.03;8.00;;;2.70;97.30;;;;;;5031977;28;20410;-87
2022/01/16 12:46:42;;;;;;;24.10;9.00;;;2.70;97.30;;;;;;5014142;28;20458;-85
2022/01/16 12:49:18;;;;;;;20.00;8.13;;;2.60;97.30;;;;;;5013780;28;20474;-87
2022/01/16 12:51:46;;;;;;;18.87;6.93;;;2.60;97.30;;;;;;5013573;28;20811;-87
2022/01/16 12:54:14;;;;;;;22.70;8.47;;;2.60;97.30;;;;;;5013568;28;20419;-87
2022/01/16 12:56:51;;;;;;;18.50;8.33;;;2.60;97.30;;;;;;5031406;28;20419;-85
2022/01/16 12:59:22;;;;;;;21.10;8.07;;;2.60;97.30;;;;;;5013755;28;20473;-86
2022/01/16 13:01:57;;;;;;;21.27;9.77;;;2.60;97.30;;;;;;5013736;28;20471;-88
2022/01/16 13:04:27;;;;;;;19.80;8.50;;;2.60;97.30;;;;;;5013613;28;20423;-87
2022/01/16 13:06:54;;;;;;;21.33;8.90;;;2.60;97.30;;;;;;5013971;28;21074;-87
2022/01/16 13:09:20;;;;;;;22.13;9.47;;;2.60;97.30;;;;;;5013499;28;20419;-86
2022/01/16 13:11:49;;;;;;;21.83;9.13;;;2.60;97.30;;;;;;5013563;28;20435;-87
2022/01/16 13:14:25;;;;;;;34.50;9.90;;;2.60;97.30;;;;;;5030147;28;20404;-87
2022/01/16 13:16:54;;;;;;;22.47;6.93;;;2.60;97.30;;;;;;5014281;28;20419;-86
2022/01/16 13:19:25;;;;;;;18.80;7.80;;;2.60;97.30;;;;;;5014815;28;20411;-87
2022/01/16 13:22:11;;;;;;;23.63;9.27;;;2.60;97.30;;;;;;5030001;28;20435;-86
2022/01/16 13:24:41;;;;;;;21.73;8.03;;;2.60;97.30;;;;;;5048794;28;20806;-88
2022/01/16 13:27:19;;;;;;;24.20;9.27;;;2.60;97.30;;;;;;5070709;28;20449;-87